sensor_id;sensor_type;location;lat;lon;timestamp;P1;durP1;ratioP1;P2;durP2;ratioP2
42296;SDS011;28985;47.456;19.016;2022-11-14T00:00:23;42.83;;;40.10;;
42296;SDS011;28985;47.456;19.016;2022-11-14T00:02:50;42.63;;;39.92;;
42296;SDS011;28985;47.456;19.016;2022-11-14T00:05:18;45.55;;;42.70;;
42296;SDS011;28985;47.456;19.016;2022-11-14T00:07:45;42.83;;;40.10;;
42296;SDS011;28985;47.456;19.016;2022-11-14T00:10:15;42.75;;;40.20;;
42296;SDS011;28985;47.456;19.016;2022-11-14T00:12:42;44.75;;;41.78;;
42296;SDS011;28985;47.456;19.016;2022-11-14T00:15:09;44.15;;;41.47;;
42296;SDS011;28985;47.456;19.016;2022-11-14T00:17:36;43.28;;;40.47;;
42296;SDS011;28985;47.456;19.016;2022-11-14T00:20:04;43.17;;;40.58;;
42296;SDS011;28985;47.456;19.016;2022-11-14T00:22:32;39.90;;;37.28;;
42296;SDS011;28985;47.456;19.016;2022-11-14T00:24:59;41.70;;;39.00;;
42296;SDS011;28985;47.456;19.016;2022-11-14T00:27:25;42.63;;;39.53;;
42296;SDS011;28985;47.456;19.016;2022-11-14T00:29:52;40.83;;;38.15;;
42296;SDS011;28985;47.456;19.016;2022-11-14T00:32:18;43.20;;;40.40;;
42296;SDS011;28985;47.456;19.016;2022-11-14T00:34:46;41.78;;;39.22;;
42296;SDS011;28985;47.456;19.016;2022-11-14T00:37:13;42.55;;;39.83;;
42296;SDS011;28985;47.456;19.016;2022-11-14T00:39:40;41.75;;;39.10;;
42296;SDS011;28985;47.456;19.016;2022-11-14T00:42:06;39.42;;;36.85;;
42296;SDS011;28985;47.456;19.016;2022-11-14T00:44:33;38.85;;;36.60;;
42296;SDS011;28985;47.456;19.016;2022-11-14T00:46:59;39.92;;;37.45;;
42296;SDS011;28985;47.456;19.016;2022-11-14T00:49:26;40.15;;;37.72;;
42296;SDS011;28985;47.456;19.016;2022-11-14T00:51:52;39.28;;;36.97;;
42296;SDS011;28985;47.456;19.016;2022-11-14T00:54:19;39.90;;;37.53;;
42296;SDS011;28985;47.456;19.016;2022-11-14T00:56:45;40.08;;;37.55;;
42296;SDS011;28985;47.456;19.016;2022-11-14T00:59:12;39.97;;;37.22;;
42296;SDS011;28985;47.456;19.016;2022-11-14T01:01:38;39.25;;;36.88;;
42296;SDS011;28985;47.456;19.016;2022-11-14T01:04:05;40.65;;;37.85;;
42296;SDS011;28985;47.456;19.016;2022-11-14T01:06:31;40.00;;;37.20;;
42296;SDS011;28985;47.456;19.016;2022-11-14T01:08:58;38.03;;;35.13;;
42296;SDS011;28985;47.456;19.016;2022-11-14T01:11:24;38.42;;;36.00;;
42296;SDS011;28985;47.456;19.016;2022-11-14T01:13:51;38.45;;;36.08;;
42296;SDS011;28985;47.456;19.016;2022-11-14T01:16:18;38.10;;;35.58;;
42296;SDS011;28985;47.456;19.016;2022-11-14T01:18:45;39.20;;;36.50;;
42296;SDS011;28985;47.456;19.016;2022-11-14T01:21:12;37.08;;;34.92;;
42296;SDS011;28985;47.456;19.016;2022-11-14T01:23:39;37.97;;;35.47;;
42296;SDS011;28985;47.456;19.016;2022-11-14T01:26:07;37.05;;;34.85;;
42296;SDS011;28985;47.456;19.016;2022-11-14T01:28:36;38.50;;;35.80;;
42296;SDS011;28985;47.456;19.016;2022-11-14T01:31:12;38.67;;;36.00;;
42296;SDS011;28985;47.456;19.016;2022-11-14T01:33:43;37.80;;;35.28;;
42296;SDS011;28985;47.456;19.016;2022-11-14T01:36:14;40.60;;;37.25;;
42296;SDS011;28985;47.456;19.016;2022-11-14T01:38:40;39.33;;;36.67;;
42296;SDS011;28985;47.456;19.016;2022-11-14T01:41:08;35.97;;;33.67;;
42296;SDS011;28985;47.456;19.016;2022-11-14T01:43:37;37.83;;;35.22;;
42296;SDS011;28985;47.456;19.016;2022-11-14T01:46:06;34.70;;;32.35;;
42296;SDS011;28985;47.456;19.016;2022-11-14T01:48:51;33.97;;;31.98;;
42296;SDS011;28985;47.456;19.016;2022-11-14T01:56:28;35.42;;;33.13;;
42296;SDS011;28985;47.456;19.016;2022-11-14T01:59:13;36.17;;;33.78;;
42296;SDS011;28985;47.456;19.016;2022-11-14T02:01:46;37.67;;;34.58;;
42296;SDS011;28985;47.456;19.016;2022-11-14T02:04:26;39.08;;;36.20;;
42296;SDS011;28985;47.456;19.016;2022-11-14T02:06:59;38.88;;;36.40;;
42296;SDS011;28985;47.456;19.016;2022-11-14T02:09:30;39.10;;;36.45;;
42296;SDS011;28985;47.456;19.016;2022-11-14T02:12:00;39.95;;;37.35;;
42296;SDS011;28985;47.456;19.016;2022-11-14T02:14:28;41.80;;;38.85;;
42296;SDS011;28985;47.456;19.016;2022-11-14T02:16:55;39.67;;;37.20;;
42296;SDS011;28985;47.456;19.016;2022-11-14T02:19:43;39.63;;;37.08;;
42296;SDS011;28985;47.456;19.016;2022-11-14T02:22:13;38.83;;;36.53;;
42296;SDS011;28985;47.456;19.016;2022-11-14T02:24:40;41.05;;;38.58;;
42296;SDS011;28985;47.456;19.016;2022-11-14T02:27:07;39.65;;;36.97;;
42296;SDS011;28985;47.456;19.016;2022-11-14T02:29:35;42.38;;;39.10;;
42296;SDS011;28985;47.456;19.016;2022-11-14T02:32:02;41.30;;;38.40;;
42296;SDS011;28985;47.456;19.016;2022-11-14T02:34:35;42.08;;;39.17;;
42296;SDS011;28985;47.456;19.016;2022-11-14T02:37:02;39.67;;;37.08;;
42296;SDS011;28985;47.456;19.016;2022-11-14T02:39:29;41.60;;;38.60;;
42296;SDS011;28985;47.456;19.016;2022-11-14T02:41:56;40.60;;;38.10;;
42296;SDS011;28985;47.456;19.016;2022-11-14T02:44:22;40.05;;;37.53;;
42296;SDS011;28985;47.456;19.016;2022-11-14T02:46:49;39.78;;;36.88;;
42296;SDS011;28985;47.456;19.016;2022-11-14T02:49:15;38.95;;;36.35;;
42296;SDS011;28985;47.456;19.016;2022-11-14T02:51:42;39.30;;;36.47;;
42296;SDS011;28985;47.456;19.016;2022-11-14T02:54:09;38.25;;;35.95;;
42296;SDS011;28985;47.456;19.016;2022-11-14T02:56:35;38.58;;;35.92;;
42296;SDS011;28985;47.456;19.016;2022-11-14T02:59:02;38.88;;;36.38;;
42296;SDS011;28985;47.456;19.016;2022-11-14T03:01:28;40.40;;;37.38;;
42296;SDS011;28985;47.456;19.016;2022-11-14T03:03:55;39.22;;;36.50;;
42296;SDS011;28985;47.456;19.016;2022-11-14T03:06:21;39.17;;;36.72;;
42296;SDS011;28985;47.456;19.016;2022-11-14T03:08:48;37.33;;;34.70;;
42296;SDS011;28985;47.456;19.016;2022-11-14T03:11:14;37.08;;;34.63;;
42296;SDS011;28985;47.456;19.016;2022-11-14T03:13:41;38.05;;;35.58;;
42296;SDS011;28985;47.456;19.016;2022-11-14T03:16:08;40.22;;;37.25;;
42296;SDS011;28985;47.456;19.016;2022-11-14T03:18:36;38.75;;;35.85;;
42296;SDS011;28985;47.456;19.016;2022-11-14T03:21:04;38.25;;;35.40;;
42296;SDS011;28985;47.456;19.016;2022-11-14T03:23:35;36.65;;;34.28;;
42296;SDS011;28985;47.456;19.016;2022-11-14T03:26:03;35.33;;;33.03;;
42296;SDS011;28985;47.456;19.016;2022-11-14T03:28:31;36.97;;;34.58;;
42296;SDS011;28985;47.456;19.016;2022-11-14T03:30:58;38.40;;;35.55;;
42296;SDS011;28985;47.456;19.016;2022-11-14T03:33:24;36.88;;;34.30;;
42296;SDS011;28985;47.456;19.016;2022-11-14T03:35:51;36.95;;;34.58;;
42296;SDS011;28985;47.456;19.016;2022-11-14T03:38:18;34.58;;;32.42;;
42296;SDS011;28985;47.456;19.016;2022-11-14T03:40:51;37.50;;;35.10;;
42296;SDS011;28985;47.456;19.016;2022-11-14T03:43:18;36.47;;;33.92;;
42296;SDS011;28985;47.456;19.016;2022-11-14T03:45:46;36.80;;;34.20;;
42296;SDS011;28985;47.456;19.016;2022-11-14T03:48:13;36.33;;;34.00;;
42296;SDS011;28985;47.456;19.016;2022-11-14T03:50:40;38.60;;;36.28;;
42296;SDS011;28985;47.456;19.016;2022-11-14T03:53:08;38.63;;;36.10;;
42296;SDS011;28985;47.456;19.016;2022-11-14T03:55:36;41.05;;;38.15;;
42296;SDS011;28985;47.456;19.016;2022-11-14T03:58:04;39.88;;;37.42;;
42296;SDS011;28985;47.456;19.016;2022-11-14T04:00:30;41.17;;;38.65;;
42296;SDS011;28985;47.456;19.016;2022-11-14T04:02:57;38.97;;;36.42;;
42296;SDS011;28985;47.456;19.016;2022-11-14T04:05:24;40.08;;;37.35;;
42296;SDS011;28985;47.456;19.016;2022-11-14T04:07:50;40.05;;;37.15;;
42296;SDS011;28985;47.456;19.016;2022-11-14T04:10:17;35.58;;;33.25;;
42296;SDS011;28985;47.456;19.016;2022-11-14T04:12:50;35.42;;;33.03;;
42296;SDS011;28985;47.456;19.016;2022-11-14T04:15:18;34.50;;;32.22;;
42296;SDS011;28985;47.456;19.016;2022-11-14T04:17:45;32.88;;;30.73;;
42296;SDS011;28985;47.456;19.016;2022-11-14T04:20:12;34.08;;;31.70;;
42296;SDS011;28985;47.456;19.016;2022-11-14T04:22:40;33.92;;;31.73;;
42296;SDS011;28985;47.456;19.016;2022-11-14T04:25:07;35.35;;;32.95;;
42296;SDS011;28985;47.456;19.016;2022-11-14T04:27:34;35.55;;;33.10;;
42296;SDS011;28985;47.456;19.016;2022-11-14T04:30:01;34.42;;;32.22;;
42296;SDS011;28985;47.456;19.016;2022-11-14T04:32:28;33.92;;;31.85;;
42296;SDS011;28985;47.456;19.016;2022-11-14T04:34:55;33.53;;;31.23;;
42296;SDS011;28985;47.456;19.016;2022-11-14T04:37:22;31.83;;;29.73;;
42296;SDS011;28985;47.456;19.016;2022-11-14T04:39:49;33.92;;;31.73;;
42296;SDS011;28985;47.456;19.016;2022-11-14T04:42:15;33.58;;;31.35;;
42296;SDS011;28985;47.456;19.016;2022-11-14T04:44:42;32.95;;;30.88;;
42296;SDS011;28985;47.456;19.016;2022-11-14T04:47:08;34.13;;;31.90;;
42296;SDS011;28985;47.456;19.016;2022-11-14T04:49:35;34.70;;;32.33;;
42296;SDS011;28985;47.456;19.016;2022-11-14T04:52:01;34.60;;;32.17;;
42296;SDS011;28985;47.456;19.016;2022-11-14T04:54:28;34.05;;;31.73;;
42296;SDS011;28985;47.456;19.016;2022-11-14T04:56:54;34.83;;;32.22;;
42296;SDS011;28985;47.456;19.016;2022-11-14T04:59:21;34.55;;;32.25;;
42296;SDS011;28985;47.456;19.016;2022-11-14T05:01:47;33.80;;;31.65;;
42296;SDS011;28985;47.456;19.016;2022-11-14T05:04:14;33.40;;;31.33;;
42296;SDS011;28985;47.456;19.016;2022-11-14T05:06:41;33.22;;;31.20;;
42296;SDS011;28985;47.456;19.016;2022-11-14T05:09:08;34.42;;;32.22;;
42296;SDS011;28985;47.456;19.016;2022-11-14T05:11:35;32.88;;;30.75;;
42296;SDS011;28985;47.456;19.016;2022-11-14T05:14:01;33.90;;;31.60;;
42296;SDS011;28985;47.456;19.016;2022-11-14T05:16:28;35.22;;;32.72;;
42296;SDS011;28985;47.456;19.016;2022-11-14T05:18:54;34.03;;;31.73;;
42296;SDS011;28985;47.456;19.016;2022-11-14T05:21:21;33.92;;;31.50;;
42296;SDS011;28985;47.456;19.016;2022-11-14T05:23:47;35.05;;;32.50;;
42296;SDS011;28985;47.456;19.016;2022-11-14T05:26:15;33.25;;;30.92;;
42296;SDS011;28985;47.456;19.016;2022-11-14T05:28:43;33.35;;;31.30;;
42296;SDS011;28985;47.456;19.016;2022-11-14T05:31:11;32.60;;;30.38;;
42296;SDS011;28985;47.456;19.016;2022-11-14T05:33:40;32.28;;;30.17;;
42296;SDS011;28985;47.456;19.016;2022-11-14T05:36:11;31.67;;;29.80;;
42296;SDS011;28985;47.456;19.016;2022-11-14T05:38:39;31.38;;;29.38;;
42296;SDS011;28985;47.456;19.016;2022-11-14T05:41:09;32.45;;;30.10;;
42296;SDS011;28985;47.456;19.016;2022-11-14T05:43:41;33.20;;;30.95;;
42296;SDS011;28985;47.456;19.016;2022-11-14T05:46:09;32.25;;;30.27;;
42296;SDS011;28985;47.456;19.016;2022-11-14T05:48:37;30.80;;;28.73;;
42296;SDS011;28985;47.456;19.016;2022-11-14T05:51:05;33.05;;;30.55;;
42296;SDS011;28985;47.456;19.016;2022-11-14T05:53:33;31.88;;;29.50;;
42296;SDS011;28985;47.456;19.016;2022-11-14T05:56:00;31.35;;;29.45;;
42296;SDS011;28985;47.456;19.016;2022-11-14T05:58:29;32.95;;;30.85;;
42296;SDS011;28985;47.456;19.016;2022-11-14T06:03:32;32.72;;;30.35;;
42296;SDS011;28985;47.456;19.016;2022-11-14T06:06:00;33.65;;;31.10;;
42296;SDS011;28985;47.456;19.016;2022-11-14T06:08:28;37.30;;;34.53;;
42296;SDS011;28985;47.456;19.016;2022-11-14T06:11:00;36.10;;;33.60;;
42296;SDS011;28985;47.456;19.016;2022-11-14T06:13:28;35.63;;;32.58;;
42296;SDS011;28985;47.456;19.016;2022-11-14T06:15:59;34.42;;;32.05;;
42296;SDS011;28985;47.456;19.016;2022-11-14T06:18:27;34.83;;;32.55;;
42296;SDS011;28985;47.456;19.016;2022-11-14T06:21:02;35.88;;;33.42;;
42296;SDS011;28985;47.456;19.016;2022-11-14T06:23:43;36.67;;;34.00;;
42296;SDS011;28985;47.456;19.016;2022-11-14T06:26:30;38.00;;;35.33;;
42296;SDS011;28985;47.456;19.016;2022-11-14T06:28:57;38.85;;;36.30;;
42296;SDS011;28985;47.456;19.016;2022-11-14T06:31:25;39.67;;;36.88;;
42296;SDS011;28985;47.456;19.016;2022-11-14T06:33:52;39.25;;;36.42;;
42296;SDS011;28985;47.456;19.016;2022-11-14T06:36:19;38.00;;;35.03;;
42296;SDS011;28985;47.456;19.016;2022-11-14T06:38:45;37.85;;;35.22;;
42296;SDS011;28985;47.456;19.016;2022-11-14T06:41:13;39.13;;;36.40;;
42296;SDS011;28985;47.456;19.016;2022-11-14T06:43:44;36.63;;;34.08;;
42296;SDS011;28985;47.456;19.016;2022-11-14T06:46:13;38.38;;;35.83;;
42296;SDS011;28985;47.456;19.016;2022-11-14T06:48:44;36.63;;;34.33;;
42296;SDS011;28985;47.456;19.016;2022-11-14T06:51:12;41.50;;;38.67;;
42296;SDS011;28985;47.456;19.016;2022-11-14T06:53:41;41.70;;;38.65;;
42296;SDS011;28985;47.456;19.016;2022-11-14T06:56:09;41.58;;;38.25;;
42296;SDS011;28985;47.456;19.016;2022-11-14T06:58:39;40.17;;;37.08;;
42296;SDS011;28985;47.456;19.016;2022-11-14T07:01:11;40.10;;;36.90;;
42296;SDS011;28985;47.456;19.016;2022-11-14T07:03:43;39.97;;;36.70;;
42296;SDS011;28985;47.456;19.016;2022-11-14T07:06:11;38.63;;;35.92;;
42296;SDS011;28985;47.456;19.016;2022-11-14T07:08:42;36.83;;;34.10;;
42296;SDS011;28985;47.456;19.016;2022-11-14T07:11:11;38.92;;;36.22;;
42296;SDS011;28985;47.456;19.016;2022-11-14T07:13:51;38.35;;;35.83;;
42296;SDS011;28985;47.456;19.016;2022-11-14T07:16:20;38.50;;;35.80;;
42296;SDS011;28985;47.456;19.016;2022-11-14T07:18:57;42.08;;;39.22;;
42296;SDS011;28985;47.456;19.016;2022-11-14T07:21:25;43.35;;;40.33;;
42296;SDS011;28985;47.456;19.016;2022-11-14T07:23:53;42.65;;;39.80;;
42296;SDS011;28985;47.456;19.016;2022-11-14T07:26:20;44.80;;;41.63;;
42296;SDS011;28985;47.456;19.016;2022-11-14T07:28:46;46.13;;;43.08;;
42296;SDS011;28985;47.456;19.016;2022-11-14T07:31:19;47.55;;;44.08;;
42296;SDS011;28985;47.456;19.016;2022-11-14T07:33:46;48.47;;;44.75;;
42296;SDS011;28985;47.456;19.016;2022-11-14T07:36:13;53.70;;;50.20;;
42296;SDS011;28985;47.456;19.016;2022-11-14T07:38:41;55.17;;;51.42;;
42296;SDS011;28985;47.456;19.016;2022-11-14T07:41:09;57.33;;;53.40;;
42296;SDS011;28985;47.456;19.016;2022-11-14T07:43:37;65.45;;;61.47;;
42296;SDS011;28985;47.456;19.016;2022-11-14T07:46:05;69.10;;;64.15;;
42296;SDS011;28985;47.456;19.016;2022-11-14T07:48:42;71.82;;;67.38;;
42296;SDS011;28985;47.456;19.016;2022-11-14T07:51:11;86.40;;;81.85;;
42296;SDS011;28985;47.456;19.016;2022-11-14T07:53:41;116.15;;;110.13;;
42296;SDS011;28985;47.456;19.016;2022-11-14T07:56:08;133.43;;;126.50;;
42296;SDS011;28985;47.456;19.016;2022-11-14T07:58:39;147.05;;;140.02;;
42296;SDS011;28985;47.456;19.016;2022-11-14T08:01:06;181.88;;;173.52;;
42296;SDS011;28985;47.456;19.016;2022-11-14T08:03:36;190.65;;;181.90;;
42296;SDS011;28985;47.456;19.016;2022-11-14T08:06:11;235.97;;;225.40;;
42296;SDS011;28985;47.456;19.016;2022-11-14T08:08:39;243.07;;;232.52;;
42296;SDS011;28985;47.456;19.016;2022-11-14T08:11:06;284.60;;;271.67;;
42296;SDS011;28985;47.456;19.016;2022-11-14T08:13:33;278.52;;;266.25;;
42296;SDS011;28985;47.456;19.016;2022-11-14T08:16:04;301.42;;;288.02;;
42296;SDS011;28985;47.456;19.016;2022-11-14T08:18:38;305.38;;;292.10;;
42296;SDS011;28985;47.456;19.016;2022-11-14T08:21:05;327.45;;;313.67;;
42296;SDS011;28985;47.456;19.016;2022-11-14T08:23:31;370.67;;;354.95;;
42296;SDS011;28985;47.456;19.016;2022-11-14T08:26:00;438.73;;;419.80;;
42296;SDS011;28985;47.456;19.016;2022-11-14T08:28:26;415.63;;;397.95;;
42296;SDS011;28985;47.456;19.016;2022-11-14T08:31:00;387.20;;;370.83;;
42296;SDS011;28985;47.456;19.016;2022-11-14T08:33:28;312.08;;;299.13;;
42296;SDS011;28985;47.456;19.016;2022-11-14T08:36:03;216.38;;;207.57;;
42296;SDS011;28985;47.456;19.016;2022-11-14T08:40:59;163.23;;;155.93;;
42296;SDS011;28985;47.456;19.016;2022-11-14T08:43:26;163.40;;;156.27;;
42296;SDS011;28985;47.456;19.016;2022-11-14T08:46:00;122.88;;;117.20;;
42296;SDS011;28985;47.456;19.016;2022-11-14T08:48:28;78.20;;;73.95;;
42296;SDS011;28985;47.456;19.016;2022-11-14T08:50:57;73.13;;;69.43;;
42296;SDS011;28985;47.456;19.016;2022-11-14T08:53:27;80.95;;;77.18;;
42296;SDS011;28985;47.456;19.016;2022-11-14T08:55:53;99.10;;;94.03;;
42296;SDS011;28985;47.456;19.016;2022-11-14T08:58:20;90.45;;;85.80;;
42296;SDS011;28985;47.456;19.016;2022-11-14T09:00:46;53.28;;;50.00;;
42296;SDS011;28985;47.456;19.016;2022-11-14T09:03:13;38.67;;;36.30;;
42296;SDS011;28985;47.456;19.016;2022-11-14T09:05:41;36.20;;;33.80;;
42296;SDS011;28985;47.456;19.016;2022-11-14T09:08:08;31.50;;;29.40;;
42296;SDS011;28985;47.456;19.016;2022-11-14T09:10:34;32.88;;;30.65;;
42296;SDS011;28985;47.456;19.016;2022-11-14T09:13:02;32.20;;;30.20;;
42296;SDS011;28985;47.456;19.016;2022-11-14T09:15:29;33.28;;;30.88;;
42296;SDS011;28985;47.456;19.016;2022-11-14T09:17:56;32.35;;;29.92;;
42296;SDS011;28985;47.456;19.016;2022-11-14T09:20:23;30.60;;;28.40;;
42296;SDS011;28985;47.456;19.016;2022-11-14T09:22:58;28.67;;;26.73;;
42296;SDS011;28985;47.456;19.016;2022-11-14T09:25:25;28.30;;;26.40;;
42296;SDS011;28985;47.456;19.016;2022-11-14T09:27:51;27.23;;;25.00;;
42296;SDS011;28985;47.456;19.016;2022-11-14T09:30:18;24.15;;;22.52;;
42296;SDS011;28985;47.456;19.016;2022-11-14T09:32:45;25.33;;;23.52;;
42296;SDS011;28985;47.456;19.016;2022-11-14T09:35:11;24.75;;;22.80;;
42296;SDS011;28985;47.456;19.016;2022-11-14T09:37:38;23.75;;;21.92;;
42296;SDS011;28985;47.456;19.016;2022-11-14T09:40:05;24.45;;;22.45;;
42296;SDS011;28985;47.456;19.016;2022-11-14T09:45:33;23.98;;;21.88;;
42296;SDS011;28985;47.456;19.016;2022-11-14T09:48:11;23.80;;;21.88;;
42296;SDS011;28985;47.456;19.016;2022-11-14T09:50:43;20.45;;;19.05;;
42296;SDS011;28985;47.456;19.016;2022-11-14T09:55:52;22.13;;;20.33;;
42296;SDS011;28985;47.456;19.016;2022-11-14T09:58:19;23.88;;;22.17;;
42296;SDS011;28985;47.456;19.016;2022-11-14T10:00:50;25.17;;;22.90;;
42296;SDS011;28985;47.456;19.016;2022-11-14T10:03:38;23.73;;;22.08;;
42296;SDS011;28985;47.456;19.016;2022-11-14T10:06:21;25.20;;;23.40;;
42296;SDS011;28985;47.456;19.016;2022-11-14T10:23:43;23.67;;;21.95;;
42296;SDS011;28985;47.456;19.016;2022-11-14T10:26:29;25.20;;;23.40;;
42296;SDS011;28985;47.456;19.016;2022-11-14T10:34:14;25.98;;;24.38;;
42296;SDS011;28985;47.456;19.016;2022-11-14T10:37:04;26.02;;;24.08;;
42296;SDS011;28985;47.456;19.016;2022-11-14T10:39:52;27.63;;;25.40;;
42296;SDS011;28985;47.456;19.016;2022-11-14T10:42:24;27.70;;;25.83;;
42296;SDS011;28985;47.456;19.016;2022-11-14T10:45:21;27.42;;;25.23;;
42296;SDS011;28985;47.456;19.016;2022-11-14T10:50:24;26.48;;;24.23;;
42296;SDS011;28985;47.456;19.016;2022-11-14T10:52:57;22.65;;;21.08;;
42296;SDS011;28985;47.456;19.016;2022-11-14T10:55:28;21.80;;;20.10;;
42296;SDS011;28985;47.456;19.016;2022-11-14T10:58:15;23.40;;;21.63;;
42296;SDS011;28985;47.456;19.016;2022-11-14T11:00:41;22.55;;;20.85;;
42296;SDS011;28985;47.456;19.016;2022-11-14T11:03:08;21.05;;;19.58;;
42296;SDS011;28985;47.456;19.016;2022-11-14T11:05:43;21.38;;;19.88;;
42296;SDS011;28985;47.456;19.016;2022-11-14T11:08:18;20.88;;;19.27;;
42296;SDS011;28985;47.456;19.016;2022-11-14T11:11:10;18.95;;;17.45;;
42296;SDS011;28985;47.456;19.016;2022-11-14T11:13:58;20.33;;;18.65;;
42296;SDS011;28985;47.456;19.016;2022-11-14T11:16:26;20.23;;;18.85;;
42296;SDS011;28985;47.456;19.016;2022-11-14T11:19:14;20.42;;;18.83;;
42296;SDS011;28985;47.456;19.016;2022-11-14T11:21:48;19.52;;;17.92;;
42296;SDS011;28985;47.456;19.016;2022-11-14T11:24:32;19.40;;;17.83;;
42296;SDS011;28985;47.456;19.016;2022-11-14T11:30:18;19.15;;;17.65;;
42296;SDS011;28985;47.456;19.016;2022-11-14T11:32:45;19.15;;;17.52;;
42296;SDS011;28985;47.456;19.016;2022-11-14T11:35:12;20.50;;;18.80;;
42296;SDS011;28985;47.456;19.016;2022-11-14T11:40:26;20.48;;;18.90;;
42296;SDS011;28985;47.456;19.016;2022-11-14T11:43:02;20.13;;;18.50;;
42296;SDS011;28985;47.456;19.016;2022-11-14T11:45:56;20.30;;;18.77;;
42296;SDS011;28985;47.456;19.016;2022-11-14T11:48:33;20.67;;;18.98;;
42296;SDS011;28985;47.456;19.016;2022-11-14T11:51:04;20.65;;;19.05;;
42296;SDS011;28985;47.456;19.016;2022-11-14T11:53:38;20.38;;;18.67;;
42296;SDS011;28985;47.456;19.016;2022-11-14T11:58:52;19.75;;;18.35;;
42296;SDS011;28985;47.456;19.016;2022-11-14T12:01:22;19.42;;;17.92;;
42296;SDS011;28985;47.456;19.016;2022-11-14T12:03:50;21.15;;;19.30;;
42296;SDS011;28985;47.456;19.016;2022-11-14T12:06:22;21.50;;;19.80;;
42296;SDS011;28985;47.456;19.016;2022-11-14T12:11:41;20.38;;;18.75;;
42296;SDS011;28985;47.456;19.016;2022-11-14T12:31:51;19.38;;;17.77;;
42296;SDS011;28985;47.456;19.016;2022-11-14T12:34:30;18.65;;;17.17;;
42296;SDS011;28985;47.456;19.016;2022-11-14T12:37:05;17.23;;;15.90;;
42296;SDS011;28985;47.456;19.016;2022-11-14T12:39:34;17.25;;;15.98;;
42296;SDS011;28985;47.456;19.016;2022-11-14T12:42:02;17.63;;;16.50;;
42296;SDS011;28985;47.456;19.016;2022-11-14T12:44:32;18.65;;;17.25;;
42296;SDS011;28985;47.456;19.016;2022-11-14T13:00:28;17.02;;;15.85;;
42296;SDS011;28985;47.456;19.016;2022-11-14T13:03:01;18.27;;;16.92;;
42296;SDS011;28985;47.456;19.016;2022-11-14T13:14:18;17.70;;;16.55;;
42296;SDS011;28985;47.456;19.016;2022-11-14T13:20:00;16.35;;;15.30;;
42296;SDS011;28985;47.456;19.016;2022-11-14T13:28:53;17.88;;;16.60;;
42296;SDS011;28985;47.456;19.016;2022-11-14T13:31:20;16.98;;;15.88;;
42296;SDS011;28985;47.456;19.016;2022-11-14T13:33:49;29.95;;;16.77;;
42296;SDS011;28985;47.456;19.016;2022-11-14T13:36:35;16.30;;;15.30;;
42296;SDS011;28985;47.456;19.016;2022-11-14T13:39:14;16.95;;;15.95;;
42296;SDS011;28985;47.456;19.016;2022-11-14T13:44:33;16.67;;;15.68;;
42296;SDS011;28985;47.456;19.016;2022-11-14T13:50:03;17.98;;;16.58;;
42296;SDS011;28985;47.456;19.016;2022-11-14T13:52:33;15.90;;;14.90;;
42296;SDS011;28985;47.456;19.016;2022-11-14T13:55:05;16.92;;;16.02;;
42296;SDS011;28985;47.456;19.016;2022-11-14T14:00:56;17.98;;;17.08;;
42296;SDS011;28985;47.456;19.016;2022-11-14T14:03:35;18.42;;;17.30;;
42296;SDS011;28985;47.456;19.016;2022-11-14T14:09:08;20.83;;;19.33;;
42296;SDS011;28985;47.456;19.016;2022-11-14T14:18:16;19.02;;;17.83;;
42296;SDS011;28985;47.456;19.016;2022-11-14T14:20:39;21.50;;;19.90;;
42296;SDS011;28985;47.456;19.016;2022-11-14T14:23:20;21.88;;;20.10;;
42296;SDS011;28985;47.456;19.016;2022-11-14T14:29:23;20.30;;;18.90;;
42296;SDS011;28985;47.456;19.016;2022-11-14T14:34:31;20.27;;;18.50;;
42296;SDS011;28985;47.456;19.016;2022-11-14T14:36:59;21.38;;;19.90;;
42296;SDS011;28985;47.456;19.016;2022-11-14T14:39:26;19.90;;;18.55;;
42296;SDS011;28985;47.456;19.016;2022-11-14T14:41:54;20.58;;;19.15;;
42296;SDS011;28985;47.456;19.016;2022-11-14T14:44:37;20.48;;;19.08;;
42296;SDS011;28985;47.456;19.016;2022-11-14T14:47:22;22.38;;;20.77;;
42296;SDS011;28985;47.456;19.016;2022-11-14T14:49:59;22.35;;;20.65;;
42296;SDS011;28985;47.456;19.016;2022-11-14T14:54:56;21.08;;;19.65;;
42296;SDS011;28985;47.456;19.016;2022-11-14T14:57:24;20.95;;;19.40;;
42296;SDS011;28985;47.456;19.016;2022-11-14T15:00:00;20.90;;;19.40;;
42296;SDS011;28985;47.456;19.016;2022-11-14T15:02:30;20.98;;;19.40;;
42296;SDS011;28985;47.456;19.016;2022-11-14T15:04:57;22.65;;;21.02;;
42296;SDS011;28985;47.456;19.016;2022-11-14T15:07:25;22.73;;;21.13;;
42296;SDS011;28985;47.456;19.016;2022-11-14T15:09:58;22.63;;;21.17;;
42296;SDS011;28985;47.456;19.016;2022-11-14T15:12:28;24.85;;;23.10;;
42296;SDS011;28985;47.456;19.016;2022-11-14T15:14:55;23.73;;;21.83;;
42296;SDS011;28985;47.456;19.016;2022-11-14T15:17:24;23.50;;;21.77;;
42296;SDS011;28985;47.456;19.016;2022-11-14T15:19:51;24.52;;;22.50;;
42296;SDS011;28985;47.456;19.016;2022-11-14T15:27:50;23.67;;;21.65;;
42296;SDS011;28985;47.456;19.016;2022-11-14T15:30:26;22.73;;;20.90;;
42296;SDS011;28985;47.456;19.016;2022-11-14T15:33:01;23.33;;;21.42;;
42296;SDS011;28985;47.456;19.016;2022-11-14T15:35:33;24.25;;;22.40;;
42296;SDS011;28985;47.456;19.016;2022-11-14T15:41:08;28.80;;;26.90;;
42296;SDS011;28985;47.456;19.016;2022-11-14T15:48:54;37.00;;;34.60;;
42296;SDS011;28985;47.456;19.016;2022-11-14T15:51:37;43.17;;;40.80;;
42296;SDS011;28985;47.456;19.016;2022-11-14T15:54:28;46.13;;;43.72;;
42296;SDS011;28985;47.456;19.016;2022-11-14T15:57:05;52.50;;;49.60;;
42296;SDS011;28985;47.456;19.016;2022-11-14T15:59:37;58.00;;;54.83;;
42296;SDS011;28985;47.456;19.016;2022-11-14T16:02:17;65.22;;;62.05;;
42296;SDS011;28985;47.456;19.016;2022-11-14T16:04:47;73.97;;;70.13;;
42296;SDS011;28985;47.456;19.016;2022-11-14T16:07:16;76.57;;;72.78;;
42296;SDS011;28985;47.456;19.016;2022-11-14T16:09:44;78.45;;;74.65;;
42296;SDS011;28985;47.456;19.016;2022-11-14T16:12:10;75.57;;;71.60;;
42296;SDS011;28985;47.456;19.016;2022-11-14T16:14:37;69.97;;;66.47;;
42296;SDS011;28985;47.456;19.016;2022-11-14T16:17:03;68.95;;;65.47;;
42296;SDS011;28985;47.456;19.016;2022-11-14T16:19:30;62.30;;;58.70;;
42296;SDS011;28985;47.456;19.016;2022-11-14T16:22:00;52.17;;;49.08;;
42296;SDS011;28985;47.456;19.016;2022-11-14T16:24:28;43.35;;;40.60;;
42296;SDS011;28985;47.456;19.016;2022-11-14T16:26:59;38.60;;;36.15;;
42296;SDS011;28985;47.456;19.016;2022-11-14T16:29:26;36.90;;;34.17;;
42296;SDS011;28985;47.456;19.016;2022-11-14T16:31:52;32.33;;;30.15;;
42296;SDS011;28985;47.456;19.016;2022-11-14T16:34:24;31.40;;;28.83;;
42296;SDS011;28985;47.456;19.016;2022-11-14T16:36:58;31.63;;;28.98;;
42296;SDS011;28985;47.456;19.016;2022-11-14T16:39:26;32.97;;;30.02;;
42296;SDS011;28985;47.456;19.016;2022-11-14T16:42:02;35.40;;;32.53;;
42296;SDS011;28985;47.456;19.016;2022-11-14T16:44:30;40.05;;;36.25;;